sensor_id;sensor_type;location;lat;lon;timestamp;temperature;humidity
68274;SHT30;55104;47.356;19.448;2024-01-07T00:01:22;6.08;99.99
68274;SHT30;55104;47.356;19.448;2024-01-07T00:04:24;6.11;99.99
68274;SHT30;55104;47.356;19.448;2024-01-07T00:07:27;6.11;99.99
68274;SHT30;55104;47.356;19.448;2024-01-07T00:10:29;6.14;99.99
68274;SHT30;55104;47.356;19.448;2024-01-07T00:13:31;6.18;99.99
68274;SHT30;55104;47.356;19.448;2024-01-07T00:16:34;6.18;99.99
68274;SHT30;55104;47.356;19.448;2024-01-07T00:19:36;6.15;99.99
68274;SHT30;55104;47.356;19.448;2024-01-07T00:22:39;6.16;99.99
68274;SHT30;55104;47.356;19.448;2024-01-07T00:25:41;6.15;99.99
68274;SHT30;55104;47.356;19.448;2024-01-07T00:28:43;6.16;99.99
68274;SHT30;55104;47.356;19.448;2024-01-07T00:31:46;6.19;99.99
68274;SHT30;55104;47.356;19.448;2024-01-07T00:34:48;6.18;99.99
68274;SHT30;55104;47.356;19.448;2024-01-07T00:37:56;6.15;99.99
68274;SHT30;55104;47.356;19.448;2024-01-07T00:40:59;6.16;99.99
68274;SHT30;55104;47.356;19.448;2024-01-07T00:44:01;6.16;99.99
68274;SHT30;55104;47.356;19.448;2024-01-07T00:47:03;6.15;99.99
68274;SHT30;55104;47.356;19.448;2024-01-07T00:50:05;6.16;99.99
68274;SHT30;55104;47.356;19.448;2024-01-07T00:53:08;6.19;99.99
68274;SHT30;55104;47.356;19.448;2024-01-07T00:56:10;6.18;99.99
68274;SHT30;55104;47.356;19.448;2024-01-07T00:59:12;6.15;99.99
68274;SHT30;55104;47.356;19.448;2024-01-07T01:02:14;6.21;99.99
68274;SHT30;55104;47.356;19.448;2024-01-07T01:05:16;6.26;99.99
68274;SHT30;55104;47.356;19.448;2024-01-07T01:08:19;6.21;99.99
68274;SHT30;55104;47.356;19.448;2024-01-07T01:11:22;6.19;99.99
68274;SHT30;55104;47.356;19.448;2024-01-07T01:14:24;6.21;99.99
68274;SHT30;55104;47.356;19.448;2024-01-07T01:17:26;6.19;99.99
68274;SHT30;55104;47.356;19.448;2024-01-07T01:20:28;6.22;99.99
68274;SHT30;55104;47.356;19.448;2024-01-07T01:23:31;6.21;99.99
68274;SHT30;55104;47.356;19.448;2024-01-07T01:26:33;6.22;99.99
68274;SHT30;55104;47.356;19.448;2024-01-07T01:29:36;6.22;99.99
68274;SHT30;55104;47.356;19.448;2024-01-07T01:32:38;6.19;99.99
68274;SHT30;55104;47.356;19.448;2024-01-07T01:35:41;6.24;99.99
68274;SHT30;55104;47.356;19.448;2024-01-07T01:38:43;6.22;99.99
68274;SHT30;55104;47.356;19.448;2024-01-07T01:41:46;6.22;99.99
68274;SHT30;55104;47.356;19.448;2024-01-07T01:44:48;6.19;99.99
68274;SHT30;55104;47.356;19.448;2024-01-07T01:47:51;6.21;99.99
68274;SHT30;55104;47.356;19.448;2024-01-07T01:50:54;6.21;99.99
68274;SHT30;55104;47.356;19.448;2024-01-07T01:54:00;6.24;99.99
68274;SHT30;55104;47.356;19.448;2024-01-07T01:57:04;6.24;99.99
68274;SHT30;55104;47.356;19.448;2024-01-07T02:00:08;6.24;99.99
68274;SHT30;55104;47.356;19.448;2024-01-07T02:03:10;6.21;99.99
68274;SHT30;55104;47.356;19.448;2024-01-07T02:06:13;6.25;99.99
68274;SHT30;55104;47.356;19.448;2024-01-07T02:09:15;6.25;99.99
68274;SHT30;55104;47.356;19.448;2024-01-07T02:12:18;6.24;99.99
68274;SHT30;55104;47.356;19.448;2024-01-07T02:15:20;6.25;99.99
68274;SHT30;55104;47.356;19.448;2024-01-07T02:18:22;6.25;99.99
68274;SHT30;55104;47.356;19.448;2024-01-07T02:21:24;6.26;99.99
68274;SHT30;55104;47.356;19.448;2024-01-07T02:24:27;6.25;99.99
68274;SHT30;55104;47.356;19.448;2024-01-07T02:27:29;6.29;99.99
68274;SHT30;55104;47.356;19.448;2024-01-07T02:30:31;6.29;99.99
68274;SHT30;55104;47.356;19.448;2024-01-07T02:33:33;6.26;99.99
68274;SHT30;55104;47.356;19.448;2024-01-07T02:36:36;6.29;99.99
68274;SHT30;55104;47.356;19.448;2024-01-07T02:39:38;6.24;99.99
68274;SHT30;55104;47.356;19.448;2024-01-07T02:42:41;6.22;99.99
68274;SHT30;55104;47.356;19.448;2024-01-07T02:45:43;6.26;99.99
68274;SHT30;55104;47.356;19.448;2024-01-07T02:48:45;6.25;99.99
68274;SHT30;55104;47.356;19.448;2024-01-07T02:51:48;6.24;99.99
68274;SHT30;55104;47.356;19.448;2024-01-07T02:54:51;6.26;99.99
68274;SHT30;55104;47.356;19.448;2024-01-07T02:57:53;6.24;99.99
68274;SHT30;55104;47.356;19.448;2024-01-07T03:00:56;6.24;99.99
68274;SHT30;55104;47.356;19.448;2024-01-07T03:03:58;6.32;99.99
68274;SHT30;55104;47.356;19.448;2024-01-07T03:07:01;6.30;99.99
68274;SHT30;55104;47.356;19.448;2024-01-07T03:10:04;6.32;99.99
68274;SHT30;55104;47.356;19.448;2024-01-07T03:13:08;6.33;99.99
68274;SHT30;55104;47.356;19.448;2024-01-07T03:16:19;6.32;99.99
68274;SHT30;55104;47.356;19.448;2024-01-07T03:19:22;6.28;99.99
68274;SHT30;55104;47.356;19.448;2024-01-07T03:22:24;6.29;99.99
68274;SHT30;55104;47.356;19.448;2024-01-07T03:25:27;6.30;99.99
68274;SHT30;55104;47.356;19.448;2024-01-07T03:28:29;6.32;99.99
68274;SHT30;55104;47.356;19.448;2024-01-07T03:31:31;6.33;99.99
68274;SHT30;55104;47.356;19.448;2024-01-07T03:34:34;6.33;99.99
68274;SHT30;55104;47.356;19.448;2024-01-07T03:37:36;6.37;99.99
68274;SHT30;55104;47.356;19.448;2024-01-07T03:40:38;6.32;99.99
68274;SHT30;55104;47.356;19.448;2024-01-07T03:43:40;6.35;99.99
68274;SHT30;55104;47.356;19.448;2024-01-07T03:46:43;6.36;99.99
68274;SHT30;55104;47.356;19.448;2024-01-07T03:49:45;6.35;99.99
68274;SHT30;55104;47.356;19.448;2024-01-07T03:52:47;6.36;99.99
68274;SHT30;55104;47.356;19.448;2024-01-07T03:55:50;6.39;99.99
68274;SHT30;55104;47.356;19.448;2024-01-07T03:58:52;6.42;99.99
68274;SHT30;55104;47.356;19.448;2024-01-07T04:01:56;6.39;99.99
68274;SHT30;55104;47.356;19.448;2024-01-07T04:04:58;6.42;99.99
68274;SHT30;55104;47.356;19.448;2024-01-07T04:08:02;6.43;99.99
68274;SHT30;55104;47.356;19.448;2024-01-07T04:11:04;6.44;99.99
68274;SHT30;55104;47.356;19.448;2024-01-07T04:14:06;6.42;99.99
68274;SHT30;55104;47.356;19.448;2024-01-07T04:17:08;6.42;99.99
68274;SHT30;55104;47.356;19.448;2024-01-07T04:20:14;6.44;99.99
68274;SHT30;55104;47.356;19.448;2024-01-07T04:23:16;6.46;99.99
68274;SHT30;55104;47.356;19.448;2024-01-07T04:26:18;6.47;99.99
68274;SHT30;55104;47.356;19.448;2024-01-07T04:29:21;6.49;99.99
68274;SHT30;55104;47.356;19.448;2024-01-07T04:32:23;6.46;99.99
68274;SHT30;55104;47.356;19.448;2024-01-07T04:35:25;6.47;99.99
68274;SHT30;55104;47.356;19.448;2024-01-07T04:38:27;6.46;99.99
68274;SHT30;55104;47.356;19.448;2024-01-07T04:41:29;6.50;99.99
68274;SHT30;55104;47.356;19.448;2024-01-07T04:44:32;6.49;99.99
68274;SHT30;55104;47.356;19.448;2024-01-07T04:47:34;6.50;99.99
68274;SHT30;55104;47.356;19.448;2024-01-07T04:50:36;6.56;99.99
68274;SHT30;55104;47.356;19.448;2024-01-07T04:53:39;6.54;99.99
68274;SHT30;55104;47.356;19.448;2024-01-07T04:56:41;6.54;99.99
68274;SHT30;55104;47.356;19.448;2024-01-07T04:59:43;6.52;99.99
68274;SHT30;55104;47.356;19.448;2024-01-07T05:02:46;6.58;99.99
68274;SHT30;55104;47.356;19.448;2024-01-07T05:05:49;6.60;99.99
68274;SHT30;55104;47.356;19.448;2024-01-07T05:08:51;6.61;99.99
68274;SHT30;55104;47.356;19.448;2024-01-07T05:11:53;6.58;99.99
68274;SHT30;55104;47.356;19.448;2024-01-07T05:14:55;6.60;99.99
68274;SHT30;55104;47.356;19.448;2024-01-07T05:17:58;6.60;99.99
68274;SHT30;55104;47.356;19.448;2024-01-07T05:21:00;6.64;99.99
68274;SHT30;55104;47.356;19.448;2024-01-07T05:24:02;6.61;99.99
68274;SHT30;55104;47.356;19.448;2024-01-07T05:27:05;6.67;99.99
68274;SHT30;55104;47.356;19.448;2024-01-07T05:30:08;6.69;99.99
68274;SHT30;55104;47.356;19.448;2024-01-07T05:33:10;6.66;99.99
68274;SHT30;55104;47.356;19.448;2024-01-07T05:36:12;6.69;99.99
68274;SHT30;55104;47.356;19.448;2024-01-07T05:39:14;6.71;99.99
68274;SHT30;55104;47.356;19.448;2024-01-07T05:42:17;6.73;99.99
68274;SHT30;55104;47.356;19.448;2024-01-07T05:45:19;6.71;99.99
68274;SHT30;55104;47.356;19.448;2024-01-07T05:48:22;6.70;99.99
68274;SHT30;55104;47.356;19.448;2024-01-07T05:51:25;6.71;99.99
68274;SHT30;55104;47.356;19.448;2024-01-07T05:54:27;6.74;99.99
68274;SHT30;55104;47.356;19.448;2024-01-07T05:57:33;6.70;99.99
68274;SHT30;55104;47.356;19.448;2024-01-07T06:00:35;6.74;99.99
68274;SHT30;55104;47.356;19.448;2024-01-07T06:03:37;6.73;99.99
68274;SHT30;55104;47.356;19.448;2024-01-07T06:06:40;6.73;99.99
68274;SHT30;55104;47.356;19.448;2024-01-07T06:09:42;6.77;99.99
68274;SHT30;55104;47.356;19.448;2024-01-07T06:12:45;6.73;99.99
68274;SHT30;55104;47.356;19.448;2024-01-07T06:15:47;6.73;99.99
68274;SHT30;55104;47.356;19.448;2024-01-07T06:18:49;6.74;99.99
68274;SHT30;55104;47.356;19.448;2024-01-07T06:21:51;6.77;99.99
68274;SHT30;55104;47.356;19.448;2024-01-07T06:24:54;6.74;99.99
68274;SHT30;55104;47.356;19.448;2024-01-07T06:27:56;6.76;99.99
68274;SHT30;55104;47.356;19.448;2024-01-07T06:30:58;6.76;99.99
68274;SHT30;55104;47.356;19.448;2024-01-07T06:34:01;6.73;99.99
68274;SHT30;55104;47.356;19.448;2024-01-07T06:37:03;6.73;99.99
68274;SHT30;55104;47.356;19.448;2024-01-07T06:40:06;6.71;99.99
68274;SHT30;55104;47.356;19.448;2024-01-07T06:43:09;6.71;99.99
68274;SHT30;55104;47.356;19.448;2024-01-07T06:46:11;6.74;99.99
68274;SHT30;55104;47.356;19.448;2024-01-07T06:49:13;6.70;99.99
68274;SHT30;55104;47.356;19.448;2024-01-07T06:52:16;6.71;99.99
68274;SHT30;55104;47.356;19.448;2024-01-07T06:55:18;6.69;99.99
68274;SHT30;55104;47.356;19.448;2024-01-07T06:58:20;6.71;99.99
68274;SHT30;55104;47.356;19.448;2024-01-07T07:01:22;6.71;99.99
68274;SHT30;55104;47.356;19.448;2024-01-07T07:04:28;6.73;99.99
68274;SHT30;55104;47.356;19.448;2024-01-07T07:07:30;6.74;99.99
68274;SHT30;55104;47.356;19.448;2024-01-07T07:10:32;6.73;99.99
68274;SHT30;55104;47.356;19.448;2024-01-07T07:13:34;6.74;99.99
68274;SHT30;55104;47.356;19.448;2024-01-07T07:16:37;6.73;99.99
68274;SHT30;55104;47.356;19.448;2024-01-07T07:19:39;6.73;99.99
68274;SHT30;55104;47.356;19.448;2024-01-07T07:22:46;6.74;99.99
68274;SHT30;55104;47.356;19.448;2024-01-07T07:25:48;6.74;99.99
68274;SHT30;55104;47.356;19.448;2024-01-07T07:28:51;6.83;99.99
68274;SHT30;55104;47.356;19.448;2024-01-07T07:31:53;6.76;99.99
68274;SHT30;55104;47.356;19.448;2024-01-07T07:34:55;6.80;99.99
68274;SHT30;55104;47.356;19.448;2024-01-07T07:37:58;6.81;99.99
68274;SHT30;55104;47.356;19.448;2024-01-07T07:41:00;6.81;99.99
68274;SHT30;55104;47.356;19.448;2024-01-07T07:44:03;6.77;99.99
68274;SHT30;55104;47.356;19.448;2024-01-07T07:47:05;6.79;99.99
68274;SHT30;55104;47.356;19.448;2024-01-07T07:50:07;6.83;99.99
68274;SHT30;55104;47.356;19.448;2024-01-07T07:53:10;6.80;99.99
68274;SHT30;55104;47.356;19.448;2024-01-07T07:56:12;6.83;99.99
68274;SHT30;55104;47.356;19.448;2024-01-07T07:59:14;6.83;99.99
68274;SHT30;55104;47.356;19.448;2024-01-07T08:02:18;6.81;99.99
68274;SHT30;55104;47.356;19.448;2024-01-07T08:05:20;6.85;99.99
68274;SHT30;55104;47.356;19.448;2024-01-07T08:08:22;6.87;99.99
68274;SHT30;55104;47.356;19.448;2024-01-07T08:11:24;6.85;99.99
68274;SHT30;55104;47.356;19.448;2024-01-07T08:14:27;6.91;99.99
68274;SHT30;55104;47.356;19.448;2024-01-07T08:17:29;6.87;99.99
68274;SHT30;55104;47.356;19.448;2024-01-07T08:20:31;6.85;99.99
68274;SHT30;55104;47.356;19.448;2024-01-07T08:23:33;6.91;99.99
68274;SHT30;55104;47.356;19.448;2024-01-07T08:26:36;6.88;99.99
68274;SHT30;55104;47.356;19.448;2024-01-07T08:29:38;6.91;99.99
68274;SHT30;55104;47.356;19.448;2024-01-07T08:32:40;6.91;99.99
68274;SHT30;55104;47.356;19.448;2024-01-07T08:35:43;6.95;99.99
68274;SHT30;55104;47.356;19.448;2024-01-07T08:38:45;6.94;99.99
68274;SHT30;55104;47.356;19.448;2024-01-07T08:41:48;6.99;99.99
68274;SHT30;55104;47.356;19.448;2024-01-07T08:44:50;6.98;99.99
68274;SHT30;55104;47.356;19.448;2024-01-07T08:47:53;7.04;99.99
68274;SHT30;55104;47.356;19.448;2024-01-07T08:50:55;7.04;99.99
68274;SHT30;55104;47.356;19.448;2024-01-07T08:53:58;6.99;99.99
68274;SHT30;55104;47.356;19.448;2024-01-07T08:57:01;7.01;99.99
68274;SHT30;55104;47.356;19.448;2024-01-07T09:00:04;7.01;99.99
68274;SHT30;55104;47.356;19.448;2024-01-07T09:03:07;7.01;99.99
68274;SHT30;55104;47.356;19.448;2024-01-07T09:06:09;7.04;99.99
68274;SHT30;55104;47.356;19.448;2024-01-07T09:09:12;7.04;99.99
68274;SHT30;55104;47.356;19.448;2024-01-07T09:12:14;7.04;99.99
68274;SHT30;55104;47.356;19.448;2024-01-07T09:15:17;7.09;99.99
68274;SHT30;55104;47.356;19.448;2024-01-07T09:18:20;7.11;99.99
68274;SHT30;55104;47.356;19.448;2024-01-07T09:21:23;7.09;99.99
68274;SHT30;55104;47.356;19.448;2024-01-07T09:24:26;7.12;99.99
68274;SHT30;55104;47.356;19.448;2024-01-07T09:27:28;7.15;99.99
68274;SHT30;55104;47.356;19.448;2024-01-07T09:30:31;7.11;99.99
68274;SHT30;55104;47.356;19.448;2024-01-07T09:33:33;7.16;99.99
68274;SHT30;55104;47.356;19.448;2024-01-07T09:36:35;7.12;99.99
68274;SHT30;55104;47.356;19.448;2024-01-07T09:39:42;7.12;99.99
68274;SHT30;55104;47.356;19.448;2024-01-07T09:42:44;7.16;99.99
68274;SHT30;55104;47.356;19.448;2024-01-07T09:45:47;7.14;99.99
68274;SHT30;55104;47.356;19.448;2024-01-07T09:48:52;7.09;99.99
68274;SHT30;55104;47.356;19.448;2024-01-07T09:51:59;7.14;99.99
68274;SHT30;55104;47.356;19.448;2024-01-07T09:55:03;7.08;99.99
68274;SHT30;55104;47.356;19.448;2024-01-07T09:58:06;7.14;99.99
68274;SHT30;55104;47.356;19.448;2024-01-07T10:01:09;7.20;99.99
68274;SHT30;55104;47.356;19.448;2024-01-07T10:04:12;7.15;99.99
68274;SHT30;55104;47.356;19.448;2024-01-07T10:07:14;7.12;99.99
68274;SHT30;55104;47.356;19.448;2024-01-07T10:10:17;7.15;99.99
68274;SHT30;55104;47.356;19.448;2024-01-07T10:13:22;7.27;99.99
68274;SHT30;55104;47.356;19.448;2024-01-07T10:16:24;7.35;99.99
68274;SHT30;55104;47.356;19.448;2024-01-07T10:19:27;7.23;99.99
68274;SHT30;55104;47.356;19.448;2024-01-07T10:22:30;7.23;99.99
68274;SHT30;55104;47.356;19.448;2024-01-07T10:25:34;7.32;99.99
68274;SHT30;55104;47.356;19.448;2024-01-07T10:28:37;7.33;99.99
68274;SHT30;55104;47.356;19.448;2024-01-07T10:31:40;7.45;99.99
68274;SHT30;55104;47.356;19.448;2024-01-07T10:34:46;7.40;99.99
68274;SHT30;55104;47.356;19.448;2024-01-07T10:37:52;7.45;99.99
68274;SHT30;55104;47.356;19.448;2024-01-07T10:40:55;7.53;99.99
68274;SHT30;55104;47.356;19.448;2024-01-07T10:44:00;7.50;99.99
68274;SHT30;55104;47.356;19.448;2024-01-07T10:47:06;7.52;99.99
68274;SHT30;55104;47.356;19.448;2024-01-07T10:50:11;7.52;99.99
68274;SHT30;55104;47.356;19.448;2024-01-07T10:53:21;7.54;99.99
68274;SHT30;55104;47.356;19.448;2024-01-07T10:56:24;7.54;99.99
68274;SHT30;55104;47.356;19.448;2024-01-07T10:59:29;7.54;99.99
68274;SHT30;55104;47.356;19.448;2024-01-07T11:02:37;7.59;99.99
68274;SHT30;55104;47.356;19.448;2024-01-07T11:06:04;7.64;99.99
68274;SHT30;55104;47.356;19.448;2024-01-07T11:09:26;7.67;99.99
68274;SHT30;55104;47.356;19.448;2024-01-07T11:12:37;7.71;99.99
68274;SHT30;55104;47.356;19.448;2024-01-07T11:18:55;7.66;99.99
68274;SHT30;55104;47.356;19.448;2024-01-07T11:25:31;7.64;99.99
68274;SHT30;55104;47.356;19.448;2024-01-07T11:28:53;7.60;99.99
68274;SHT30;55104;47.356;19.448;2024-01-07T11:31:56;7.53;99.99
68274;SHT30;55104;47.356;19.448;2024-01-07T11:34:59;7.60;99.99
68274;SHT30;55104;47.356;19.448;2024-01-07T11:38:03;7.59;99.99
68274;SHT30;55104;47.356;19.448;2024-01-07T11:41:06;7.54;99.99
68274;SHT30;55104;47.356;19.448;2024-01-07T11:44:11;7.59;99.99
68274;SHT30;55104;47.356;19.448;2024-01-07T11:47:17;7.54;99.99
68274;SHT30;55104;47.356;19.448;2024-01-07T11:50:19;7.53;99.99
68274;SHT30;55104;47.356;19.448;2024-01-07T11:53:22;7.46;99.99
68274;SHT30;55104;47.356;19.448;2024-01-07T11:56:24;7.47;99.99
68274;SHT30;55104;47.356;19.448;2024-01-07T11:59:29;7.40;99.99
68274;SHT30;55104;47.356;19.448;2024-01-07T12:02:31;7.47;99.99
68274;SHT30;55104;47.356;19.448;2024-01-07T12:05:34;7.42;99.99
68274;SHT30;55104;47.356;19.448;2024-01-07T12:08:38;7.46;99.99
68274;SHT30;55104;47.356;19.448;2024-01-07T12:11:42;7.40;99.99
68274;SHT30;55104;47.356;19.448;2024-01-07T12:14:46;7.37;99.99
68274;SHT30;55104;47.356;19.448;2024-01-07T12:17:58;7.32;99.97
68274;SHT30;55104;47.356;19.448;2024-01-07T12:21:04;7.33;99.99
68274;SHT30;55104;47.356;19.448;2024-01-07T12:24:07;7.36;99.99
68274;SHT30;55104;47.356;19.448;2024-01-07T12:27:09;7.32;99.99
68274;SHT30;55104;47.356;19.448;2024-01-07T12:30:12;7.36;99.99
68274;SHT30;55104;47.356;19.448;2024-01-07T12:33:19;7.35;99.81
68274;SHT30;55104;47.356;19.448;2024-01-07T12:36:22;7.32;99.93
68274;SHT30;55104;47.356;19.448;2024-01-07T12:39:24;7.32;99.59
68274;SHT30;55104;47.356;19.448;2024-01-07T12:42:30;7.42;99.39
68274;SHT30;55104;47.356;19.448;2024-01-07T12:45:33;7.36;99.37
68274;SHT30;55104;47.356;19.448;2024-01-07T12:48:35;7.36;99.48
68274;SHT30;55104;47.356;19.448;2024-01-07T12:51:37;7.32;99.96
68274;SHT30;55104;47.356;19.448;2024-01-07T12:54:39;7.35;99.92
68274;SHT30;55104;47.356;19.448;2024-01-07T12:57:41;7.29;99.96
68274;SHT30;55104;47.356;19.448;2024-01-07T13:00:44;7.25;99.95
68274;SHT30;55104;47.356;19.448;2024-01-07T13:03:46;7.16;99.92
68274;SHT30;55104;47.356;19.448;2024-01-07T13:06:51;7.18;99.48
68274;SHT30;55104;47.356;19.448;2024-01-07T13:09:53;7.14;98.63
68274;SHT30;55104;47.356;19.448;2024-01-07T13:12:56;7.08;98.87
68274;SHT30;55104;47.356;19.448;2024-01-07T13:16:09;7.02;99.06
68274;SHT30;55104;47.356;19.448;2024-01-07T13:19:13;7.05;98.56
68274;SHT30;55104;47.356;19.448;2024-01-07T13:22:17;6.98;98.60
68274;SHT30;55104;47.356;19.448;2024-01-07T13:25:19;6.92;98.46
68274;SHT30;55104;47.356;19.448;2024-01-07T13:28:22;6.85;99.00
68274;SHT30;55104;47.356;19.448;2024-01-07T13:31:24;6.81;99.10
68274;SHT30;55104;47.356;19.448;2024-01-07T13:34:27;6.79;99.21
68274;SHT30;55104;47.356;19.448;2024-01-07T13:37:30;6.77;98.60
68274;SHT30;55104;47.356;19.448;2024-01-07T13:40:35;6.77;98.43
68274;SHT30;55104;47.356;19.448;2024-01-07T13:43:37;6.67;98.43
68274;SHT30;55104;47.356;19.448;2024-01-07T13:46:46;6.71;98.59
68274;SHT30;55104;47.356;19.448;2024-01-07T13:49:48;6.63;98.51
68274;SHT30;55104;47.356;19.448;2024-01-07T13:52:51;6.60;98.28
68274;SHT30;55104;47.356;19.448;2024-01-07T13:55:55;6.57;98.34
68274;SHT30;55104;47.356;19.448;2024-01-07T13:58:58;6.57;98.58
68274;SHT30;55104;47.356;19.448;2024-01-07T14:02:00;6.56;98.59
68274;SHT30;55104;47.356;19.448;2024-01-07T14:05:05;6.54;98.64
68274;SHT30;55104;47.356;19.448;2024-01-07T14:08:12;6.53;98.18
68274;SHT30;55104;47.356;19.448;2024-01-07T14:11:24;6.44;98.34
68274;SHT30;55104;47.356;19.448;2024-01-07T14:14:29;6.44;98.84
68274;SHT30;55104;47.356;19.448;2024-01-07T14:17:32;6.35;98.95
68274;SHT30;55104;47.356;19.448;2024-01-07T14:20:34;6.40;98.59
68274;SHT30;55104;47.356;19.448;2024-01-07T14:23:42;6.42;98.50
68274;SHT30;55104;47.356;19.448;2024-01-07T14:27:13;6.37;98.88
68274;SHT30;55104;47.356;19.448;2024-01-07T14:31:06;6.33;99.11
68274;SHT30;55104;47.356;19.448;2024-01-07T14:34:10;6.32;97.74
68274;SHT30;55104;47.356;19.448;2024-01-07T14:37:13;6.30;97.91
68274;SHT30;55104;47.356;19.448;2024-01-07T14:40:16;6.35;98.02
68274;SHT30;55104;47.356;19.448;2024-01-07T14:43:18;6.21;97.51
68274;SHT30;55104;47.356;19.448;2024-01-07T14:46:21;6.18;96.81
68274;SHT30;55104;47.356;19.448;2024-01-07T14:49:23;6.15;96.94
68274;SHT30;55104;47.356;19.448;2024-01-07T14:52:26;6.08;97.06
68274;SHT30;55104;47.356;19.448;2024-01-07T14:55:29;6.08;96.48
68274;SHT30;55104;47.356;19.448;2024-01-07T14:58:32;6.02;97.13
68274;SHT30;55104;47.356;19.448;2024-01-07T15:01:34;6.02;94.40
68274;SHT30;55104;47.356;19.448;2024-01-07T15:04:36;5.87;94.32
68274;SHT30;55104;47.356;19.448;2024-01-07T15:07:39;5.73;94.81
68274;SHT30;55104;47.356;19.448;2024-01-07T15:10:42;5.63;95.25
68274;SHT30;55104;47.356;19.448;2024-01-07T15:13:44;5.63;95.01
68274;SHT30;55104;47.356;19.448;2024-01-07T15:16:48;5.46;93.95
68274;SHT30;55104;47.356;19.448;2024-01-07T15:19:56;5.39;94.05
68274;SHT30;55104;47.356;19.448;2024-01-07T15:22:58;5.31;94.40
68274;SHT30;55104;47.356;19.448;2024-01-07T15:26:01;5.29;94.66
68274;SHT30;55104;47.356;19.448;2024-01-07T15:29:03;5.28;94.88
68274;SHT30;55104;47.356;19.448;2024-01-07T15:32:05;5.19;94.82
68274;SHT30;55104;47.356;19.448;2024-01-07T15:35:08;5.18;95.18
68274;SHT30;55104;47.356;19.448;2024-01-07T15:38:11;5.15;94.40
68274;SHT30;55104;47.356;19.448;2024-01-07T15:41:14;5.11;93.46
68274;SHT30;55104;47.356;19.448;2024-01-07T15:44:16;5.12;93.35
68274;SHT30;55104;47.356;19.448;2024-01-07T15:47:18;5.11;93.93
68274;SHT30;55104;47.356;19.448;2024-01-07T15:50:22;5.08;94.55
68274;SHT30;55104;47.356;19.448;2024-01-07T15:53:24;5.04;94.50
68274;SHT30;55104;47.356;19.448;2024-01-07T15:56:33;5.01;92.18
68274;SHT30;55104;47.356;19.448;2024-01-07T15:59:35;4.98;92.91
68274;SHT30;55104;47.356;19.448;2024-01-07T16:02:38;4.87;91.52
68274;SHT30;55104;47.356;19.448;2024-01-07T16:05:40;4.88;91.65
68274;SHT30;55104;47.356;19.448;2024-01-07T16:08:43;4.85;91.90
68274;SHT30;55104;47.356;19.448;2024-01-07T16:11:45;4.71;92.69
68274;SHT30;55104;47.356;19.448;2024-01-07T16:14:47;4.70;92.31
68274;SHT30;55104;47.356;19.448;2024-01-07T16:17:50;4.70;92.56
68274;SHT30;55104;47.356;19.448;2024-01-07T16:20:52;4.74;92.26
68274;SHT30;55104;47.356;19.448;2024-01-07T16:23:55;4.74;92.90
68274;SHT30;55104;47.356;19.448;2024-01-07T16:26:57;4.80;93.96
68274;SHT30;55104;47.356;19.448;2024-01-07T16:30:03;4.77;94.92
68274;SHT30;55104;47.356;19.448;2024-01-07T16:33:06;4.80;97.10
68274;SHT30;55104;47.356;19.448;2024-01-07T16:36:11;4.83;97.93
68274;SHT30;55104;47.356;19.448;2024-01-07T16:39:13;4.87;98.47
68274;SHT30;55104;47.356;19.448;2024-01-07T16:42:15;4.87;98.63
68274;SHT30;55104;47.356;19.448;2024-01-07T16:45:18;4.78;98.71
68274;SHT30;55104;47.356;19.448;2024-01-07T16:48:21;4.68;98.99
68274;SHT30;55104;47.356;19.448;2024-01-07T16:51:26;4.67;99.02
68274;SHT30;55104;47.356;19.448;2024-01-07T16:54:29;4.63;98.95
68274;SHT30;55104;47.356;19.448;2024-01-07T16:57:31;4.63;98.76
68274;SHT30;55104;47.356;19.448;2024-01-07T17:00:35;4.54;98.89
68274;SHT30;55104;47.356;19.448;2024-01-07T17:03:37;4.53;99.33
68274;SHT30;55104;47.356;19.448;2024-01-07T17:06:39;4.53;99.38
68274;SHT30;55104;47.356;19.448;2024-01-07T17:09:42;4.50;99.04
68274;SHT30;55104;47.356;19.448;2024-01-07T17:12:45;4.43;99.34
68274;SHT30;55104;47.356;19.448;2024-01-07T17:15:47;4.43;99.10
68274;SHT30;55104;47.356;19.448;2024-01-07T17:18:49;4.43;99.04
68274;SHT30;55104;47.356;19.448;2024-01-07T17:21:52;4.35;98.94
68274;SHT30;55104;47.356;19.448;2024-01-07T17:24:54;4.36;98.91
68274;SHT30;55104;47.356;19.448;2024-01-07T17:27:57;4.42;98.81
68274;SHT30;55104;47.356;19.448;2024-01-07T17:31:00;4.33;99.06
68274;SHT30;55104;47.356;19.448;2024-01-07T17:34:02;4.35;98.60
68274;SHT30;55104;47.356;19.448;2024-01-07T17:37:05;4.33;98.74
68274;SHT30;55104;47.356;19.448;2024-01-07T17:40:07;4.26;98.78
68274;SHT30;55104;47.356;19.448;2024-01-07T17:43:10;4.30;97.85
68274;SHT30;55104;47.356;19.448;2024-01-07T17:46:12;4.25;97.90
68274;SHT30;55104;47.356;19.448;2024-01-07T17:49:14;4.29;96.71
68274;SHT30;55104;47.356;19.448;2024-01-07T17:52:17;4.30;96.49
68274;SHT30;55104;47.356;19.448;2024-01-07T17:55:19;4.28;92.12
68274;SHT30;55104;47.356;19.448;2024-01-07T17:58:24;4.12;89.46
68274;SHT30;55104;47.356;19.448;2024-01-07T18:01:30;4.09;88.84
68274;SHT30;55104;47.356;19.448;2024-01-07T18:04:32;3.98;87.71
68274;SHT30;55104;47.356;19.448;2024-01-07T18:07:35;3.91;87.09
68274;SHT30;55104;47.356;19.448;2024-01-07T18:10:37;3.88;88.44
68274;SHT30;55104;47.356;19.448;2024-01-07T18:13:40;3.83;88.20
68274;SHT30;55104;47.356;19.448;2024-01-07T18:16:43;3.88;87.71
68274;SHT30;55104;47.356;19.448;2024-01-07T18:19:46;3.87;87.83
68274;SHT30;55104;47.356;19.448;2024-01-07T18:22:48;3.85;87.98
68274;SHT30;55104;47.356;19.448;2024-01-07T18:25:50;3.81;87.99
68274;SHT30;55104;47.356;19.448;2024-01-07T18:28:53;3.74;87.86
68274;SHT30;55104;47.356;19.448;2024-01-07T18:31:55;3.71;88.35
68274;SHT30;55104;47.356;19.448;2024-01-07T18:34:57;3.70;88.47
68274;SHT30;55104;47.356;19.448;2024-01-07T18:38:00;3.71;88.49
68274;SHT30;55104;47.356;19.448;2024-01-07T18:41:02;3.74;87.96
68274;SHT30;55104;47.356;19.448;2024-01-07T18:44:05;3.73;89.19
68274;SHT30;55104;47.356;19.448;2024-01-07T18:47:08;3.73;89.05
68274;SHT30;55104;47.356;19.448;2024-01-07T18:50:11;3.77;89.19
68274;SHT30;55104;47.356;19.448;2024-01-07T18:53:14;3.80;88.22
68274;SHT30;55104;47.356;19.448;2024-01-07T18:56:19;3.73;87.72
68274;SHT30;55104;47.356;19.448;2024-01-07T18:59:22;3.73;90.22
68274;SHT30;55104;47.356;19.448;2024-01-07T19:02:25;3.73;92.10
68274;SHT30;55104;47.356;19.448;2024-01-07T19:05:27;3.73;93.10
68274;SHT30;55104;47.356;19.448;2024-01-07T19:08:30;3.80;93.63
68274;SHT30;55104;47.356;19.448;2024-01-07T19:11:34;3.78;94.17
68274;SHT30;55104;47.356;19.448;2024-01-07T19:14:38;3.80;94.20
68274;SHT30;55104;47.356;19.448;2024-01-07T19:17:41;3.73;93.09
68274;SHT30;55104;47.356;19.448;2024-01-07T19:20:49;3.78;92.37
68274;SHT30;55104;47.356;19.448;2024-01-07T19:23:52;3.60;88.43